createdAt,value
2023-03-11T00:00:52.720Z,6.00
2023-03-11T00:01:52.745Z,6.10
2023-03-11T00:02:52.530Z,5.70
2023-03-11T00:03:52.539Z,5.30
2023-03-11T00:04:52.658Z,5.00
2023-03-11T00:05:52.583Z,5.80
2023-03-11T00:06:52.477Z,5.60
2023-03-11T00:07:52.504Z,5.40
2023-03-11T00:08:52.485Z,5.00
2023-03-11T00:09:52.622Z,5.10
2023-03-11T00:10:52.551Z,4.80
2023-03-11T00:11:52.435Z,4.80
2023-03-11T00:12:52.607Z,4.10
2023-03-11T00:13:52.422Z,4.20
2023-03-11T00:14:52.392Z,4.00
2023-03-11T00:15:52.405Z,4.40
2023-03-11T00:16:52.457Z,4.10
2023-03-11T00:17:52.410Z,4.10
2023-03-11T00:18:52.394Z,4.30
2023-03-11T00:19:52.339Z,4.50
2023-03-11T00:20:52.344Z,4.40
2023-03-11T00:21:52.310Z,4.20
2023-03-11T00:22:52.301Z,4.60
2023-03-11T00:23:52.327Z,4.30
2023-03-11T00:24:52.282Z,4.30
2023-03-11T00:25:52.299Z,4.20
2023-03-11T00:26:52.280Z,3.80
2023-03-11T00:27:52.323Z,4.20
2023-03-11T00:28:52.256Z,4.00
2023-03-11T00:29:52.243Z,4.10
2023-03-11T00:30:52.232Z,4.10
2023-03-11T00:31:52.204Z,3.80
2023-03-11T00:32:52.498Z,4.10
2023-03-11T00:33:52.193Z,4.20
2023-03-11T00:34:52.198Z,3.80
2023-03-11T00:35:52.217Z,3.40
2023-03-11T00:36:52.228Z,3.90
2023-03-11T00:37:52.272Z,3.80
2023-03-11T00:38:52.195Z,3.40
2023-03-11T00:39:52.125Z,3.20
2023-03-11T00:40:52.123Z,3.20
2023-03-11T00:41:52.114Z,3.60
2023-03-11T00:42:52.074Z,3.30
2023-03-11T00:43:52.084Z,3.20
2023-03-11T00:44:52.113Z,3.60
2023-03-11T00:45:52.107Z,3.00
2023-03-11T00:46:52.172Z,2.90
2023-03-11T00:47:52.018Z,3.00
2023-03-11T00:48:52.045Z,2.80
2023-03-11T00:49:51.995Z,2.90
2023-03-11T00:50:51.984Z,3.10
2023-03-11T00:51:52.032Z,2.60
2023-03-11T00:52:52.072Z,2.90
2023-03-11T00:53:51.975Z,2.70
2023-03-11T00:54:51.945Z,2.30
2023-03-11T00:55:51.927Z,2.20
2023-03-11T00:56:52.120Z,2.40
2023-03-11T00:57:51.906Z,2.50
2023-03-11T00:58:51.916Z,2.10
2023-03-11T00:59:51.964Z,2.50
2023-03-11T01:00:52.029Z,2.20
2023-03-11T01:01:51.891Z,2.50
2023-03-11T01:02:51.891Z,2.20
2023-03-11T01:03:51.832Z,2.00
2023-03-11T01:04:51.925Z,2.10
2023-03-11T01:05:51.919Z,2.20
2023-03-11T01:06:51.841Z,1.90
2023-03-11T01:07:51.794Z,1.90
2023-03-11T01:08:51.813Z,2.00
2023-03-11T01:09:51.857Z,2.00
2023-03-11T01:10:51.868Z,1.90
2023-03-11T01:11:51.775Z,2.00
2023-03-11T01:12:51.737Z,1.90
2023-03-11T01:13:51.731Z,1.80
2023-03-11T01:14:51.852Z,1.90
2023-03-11T01:15:51.923Z,1.70
2023-03-11T01:16:51.754Z,2.10
2023-03-11T01:17:51.753Z,2.00
2023-03-11T01:18:51.774Z,1.90
2023-03-11T01:19:51.665Z,2.10
2023-03-11T01:20:51.654Z,2.10
2023-03-11T01:21:51.703Z,1.70
2023-03-11T01:22:51.672Z,1.60
2023-03-11T01:23:51.747Z,2.00
2023-03-11T01:24:51.630Z,1.90
2023-03-11T01:25:51.643Z,1.70
2023-03-11T01:26:51.658Z,1.90
2023-03-11T01:27:51.712Z,2.00
2023-03-11T01:28:51.650Z,1.80
2023-03-11T01:29:51.560Z,1.90
2023-03-11T01:30:51.662Z,1.60
2023-03-11T01:31:51.614Z,1.90
2023-03-11T01:32:51.698Z,1.90
2023-03-11T01:33:51.667Z,2.10
2023-03-11T01:34:51.639Z,1.90
2023-03-11T01:35:51.708Z,1.90
2023-03-11T01:36:51.619Z,1.70
2023-03-11T01:37:51.469Z,1.80
2023-03-11T01:38:51.443Z,1.80
2023-03-11T01:39:51.452Z,1.70
2023-03-11T01:40:51.473Z,1.90
2023-03-11T01:41:51.434Z,1.80
2023-03-11T01:42:51.409Z,1.80
2023-03-11T01:43:51.389Z,2.10
2023-03-11T01:44:51.405Z,2.30
2023-03-11T01:45:51.390Z,2.10
2023-03-11T01:46:51.593Z,2.30
2023-03-11T01:47:51.354Z,2.10
2023-03-11T01:48:51.399Z,2.70
2023-03-11T01:49:51.434Z,2.10
2023-03-11T01:50:51.309Z,2.70
2023-03-11T01:51:51.327Z,2.40
2023-03-11T01:52:51.287Z,2.60
2023-03-11T01:53:51.432Z,2.30
2023-03-11T01:54:51.982Z,2.50
2023-03-11T01:55:51.358Z,2.30
2023-03-11T01:56:51.277Z,1.90
2023-03-11T01:57:51.317Z,2.00
2023-03-11T01:58:51.352Z,2.00
2023-03-11T01:59:51.288Z,1.90
2023-03-11T02:00:51.375Z,2.00
2023-03-11T02:01:51.248Z,2.00
2023-03-11T02:02:51.286Z,1.90
2023-03-11T02:03:51.191Z,1.70
2023-03-11T02:04:51.176Z,1.70
2023-03-11T02:05:51.165Z,2.00
2023-03-11T02:06:53.717Z,1.70
2023-03-11T02:07:51.212Z,1.60
2023-03-11T02:08:51.194Z,1.80
2023-03-11T02:09:51.137Z,1.80
2023-03-11T02:10:51.220Z,1.70
2023-03-11T02:11:51.109Z,1.70
2023-03-11T02:12:51.070Z,1.60
2023-03-11T02:13:51.155Z,1.60
2023-03-11T02:14:51.162Z,1.50
2023-03-11T02:15:51.151Z,1.80
2023-03-11T02:16:51.092Z,1.60
2023-03-11T02:17:51.070Z,1.80
2023-03-11T02:18:51.000Z,1.40
2023-03-11T02:19:51.112Z,1.70
2023-03-11T02:20:51.166Z,1.70
2023-03-11T02:21:51.022Z,1.90
2023-03-11T02:22:50.957Z,1.60
2023-03-11T02:23:51.057Z,1.70
2023-03-11T02:24:51.112Z,2.10
2023-03-11T02:25:50.934Z,1.50
2023-03-11T02:26:50.941Z,2.00
2023-03-11T02:27:50.942Z,2.00
2023-03-11T02:28:50.955Z,2.00
2023-03-11T02:29:50.884Z,1.70
2023-03-11T02:30:50.998Z,1.80
2023-03-11T02:31:50.934Z,1.90
2023-03-11T02:32:50.940Z,1.80
2023-03-11T02:33:50.955Z,1.90
2023-03-11T02:34:50.833Z,2.10
2023-03-11T02:35:50.991Z,1.90
2023-03-11T02:36:50.922Z,2.10
2023-03-11T02:37:50.895Z,2.10
2023-03-11T02:38:50.802Z,1.90
2023-03-11T02:39:50.776Z,2.00
2023-03-11T02:40:50.793Z,1.70
2023-03-11T02:41:50.791Z,1.90
2023-03-11T02:42:50.746Z,1.90
2023-03-11T02:43:50.901Z,1.90
2023-03-11T02:44:50.763Z,2.00
2023-03-11T02:45:50.854Z,2.20
2023-03-11T02:46:50.744Z,1.70
2023-03-11T02:47:50.686Z,1.90
2023-03-11T02:48:50.693Z,1.80
2023-03-11T02:49:50.671Z,1.70
2023-03-11T02:50:50.671Z,1.50
2023-03-11T02:51:50.682Z,1.60
2023-03-11T02:52:50.622Z,1.60
2023-03-11T02:53:50.655Z,1.30
2023-03-11T02:54:50.643Z,1.40
2023-03-11T02:55:50.594Z,1.20
2023-03-11T02:56:50.778Z,1.30
2023-03-11T02:57:50.584Z,1.40
2023-03-11T02:58:50.701Z,1.60
2023-03-11T02:59:50.550Z,1.50
2023-03-11T03:00:50.553Z,1.30
2023-03-11T03:01:50.688Z,1.30
2023-03-11T03:02:50.551Z,1.40
2023-03-11T03:03:50.551Z,1.40
2023-03-11T03:04:50.497Z,1.30
2023-03-11T03:05:50.478Z,1.50
2023-03-11T03:06:50.641Z,1.50
2023-03-11T03:07:50.466Z,1.40
2023-03-11T03:08:50.588Z,1.50
2023-03-11T03:09:50.457Z,1.40
2023-03-11T03:10:50.435Z,1.80
2023-03-11T03:11:50.412Z,1.60
2023-03-11T03:12:50.558Z,1.60
2023-03-11T03:13:50.489Z,1.20
2023-03-11T03:14:50.431Z,1.50
2023-03-11T03:15:50.502Z,1.40
2023-03-11T03:16:50.578Z,1.60
2023-03-11T03:17:50.510Z,1.40
2023-03-11T03:18:50.400Z,1.50
2023-03-11T03:19:50.342Z,1.60
2023-03-11T03:20:50.402Z,1.50
2023-03-11T03:21:50.334Z,1.80
2023-03-11T03:22:50.435Z,1.70
2023-03-11T03:23:50.376Z,1.60
2023-03-11T03:24:50.271Z,1.70
2023-03-11T03:25:50.359Z,1.60
2023-03-11T03:26:50.259Z,1.80
2023-03-11T03:27:50.248Z,1.70
2023-03-11T03:28:50.322Z,1.50
2023-03-11T03:29:50.337Z,1.80
2023-03-11T03:30:50.204Z,1.60
2023-03-11T03:31:50.304Z,1.70
2023-03-11T03:32:50.238Z,1.60
2023-03-11T03:33:50.275Z,1.50
2023-03-11T03:34:50.226Z,1.50
2023-03-11T03:35:50.208Z,1.50
2023-03-11T03:36:50.131Z,1.60
2023-03-11T03:37:50.187Z,1.50
2023-03-11T03:38:50.147Z,1.60
2023-03-11T03:39:50.099Z,1.50
2023-03-11T03:40:50.188Z,1.60
2023-03-11T03:41:50.187Z,1.40
2023-03-11T03:42:50.062Z,1.40
2023-03-11T03:43:50.087Z,1.40
2023-03-11T03:44:50.045Z,1.30
2023-03-11T03:45:50.202Z,1.60
2023-03-11T03:46:50.218Z,1.50
2023-03-11T03:47:50.008Z,1.60
2023-03-11T03:48:50.001Z,1.50
2023-03-11T03:49:50.187Z,1.80
2023-03-11T03:50:49.996Z,1.60
2023-03-11T03:51:50.077Z,1.60
2023-03-11T03:52:50.086Z,1.70
2023-03-11T03:53:49.954Z,1.40
2023-03-11T03:54:49.981Z,1.90
2023-03-11T03:55:49.948Z,1.80
2023-03-11T03:56:49.923Z,1.80
2023-03-11T03:57:49.931Z,1.80
2023-03-11T03:58:49.938Z,1.80
2023-03-11T03:59:49.902Z,1.70
2023-03-11T04:00:49.867Z,1.90
2023-03-11T04:01:49.920Z,1.60
2023-03-11T04:02:49.928Z,1.70
2023-03-11T04:03:49.939Z,1.70
2023-03-11T04:04:49.852Z,1.70
2023-03-11T04:05:49.815Z,1.50
2023-03-11T04:06:49.813Z,2.10
2023-03-11T04:07:49.799Z,1.90
2023-03-11T04:08:49.780Z,2.00
2023-03-11T04:09:49.849Z,1.80
2023-03-11T04:10:49.757Z,1.60
2023-03-11T04:11:49.784Z,2.00
2023-03-11T04:12:49.769Z,1.80
2023-03-11T04:13:49.741Z,2.00
2023-03-11T04:14:49.715Z,1.80
2023-03-11T04:15:49.859Z,2.10
2023-03-11T04:16:49.808Z,1.90
2023-03-11T04:17:49.706Z,1.90
2023-03-11T04:18:49.674Z,1.90
2023-03-11T04:19:49.829Z,1.60
2023-03-11T04:20:49.761Z,1.70
2023-03-11T04:21:49.636Z,1.90
2023-03-11T04:22:49.630Z,1.60
2023-03-11T04:23:49.615Z,1.90
2023-03-11T04:24:49.690Z,1.70
2023-03-11T04:25:49.712Z,1.80
2023-03-11T04:26:49.624Z,2.10
2023-03-11T04:27:49.654Z,1.80
2023-03-11T04:28:49.555Z,2.00
2023-03-11T04:29:49.572Z,1.90
2023-03-11T04:30:49.588Z,2.00
2023-03-11T04:31:49.533Z,1.90
2023-03-11T04:32:49.688Z,2.50
2023-03-11T04:33:49.573Z,2.00
2023-03-11T04:34:49.484Z,2.20
2023-03-11T04:35:49.676Z,2.10
2023-03-11T04:36:49.461Z,1.90
2023-03-11T04:37:49.468Z,2.00
2023-03-11T04:38:49.475Z,2.20
2023-03-11T04:39:49.434Z,2.40
2023-03-11T04:40:49.491Z,1.90
2023-03-11T04:41:49.419Z,1.80
2023-03-11T04:42:49.432Z,1.70
2023-03-11T04:43:49.384Z,2.10
2023-03-11T04:44:49.367Z,2.30
2023-03-11T04:45:57.503Z,1.80
2023-03-11T04:46:49.357Z,1.90
2023-03-11T04:47:49.370Z,2.00
2023-03-11T04:48:49.385Z,1.90
2023-03-11T04:49:49.351Z,2.00
2023-03-11T04:50:49.317Z,2.10
2023-03-11T04:51:49.346Z,2.30
2023-03-11T04:52:49.328Z,2.10
2023-03-11T04:53:49.306Z,2.10
2023-03-11T04:54:49.273Z,2.30
2023-03-11T04:55:49.282Z,1.80
2023-03-11T04:56:49.295Z,2.20
2023-03-11T04:57:49.223Z,2.50
2023-03-11T04:58:49.228Z,2.50
2023-03-11T04:59:49.200Z,2.30
2023-03-11T05:00:49.229Z,2.30
2023-03-11T05:01:49.322Z,2.20
2023-03-11T05:02:49.170Z,2.10
2023-03-11T05:03:49.167Z,2.30
2023-03-11T05:04:49.302Z,2.30
2023-03-11T05:05:49.145Z,2.20
2023-03-11T05:06:49.133Z,2.10
2023-03-11T05:07:49.145Z,2.50
2023-03-11T05:08:49.160Z,2.10
2023-03-11T05:09:49.095Z,2.30
2023-03-11T05:10:49.077Z,2.30
2023-03-11T05:11:49.101Z,2.40
2023-03-11T05:12:49.089Z,2.60
2023-03-11T05:13:49.053Z,2.20
2023-03-11T05:14:49.062Z,2.80
2023-03-11T05:15:49.079Z,2.30
2023-03-11T05:16:49.054Z,2.40
2023-03-11T05:17:49.033Z,2.60
2023-03-11T05:18:49.013Z,2.50
2023-03-11T05:19:48.986Z,2.40
2023-03-11T05:20:48.990Z,2.70
2023-03-11T05:21:48.981Z,2.50
2023-03-11T05:22:48.974Z,2.50
2023-03-11T05:23:48.961Z,2.70
2023-03-11T05:24:49.065Z,3.10
2023-03-11T05:25:48.945Z,2.80
2023-03-11T05:26:48.923Z,2.50
2023-03-11T05:27:48.930Z,2.70
2023-03-11T05:28:48.966Z,2.90
2023-03-11T05:29:48.884Z,2.80
2023-03-11T05:30:48.910Z,2.70
2023-03-11T05:31:48.856Z,2.90
2023-03-11T05:32:48.974Z,3.10
2023-03-11T05:33:48.847Z,2.60
2023-03-11T05:34:48.840Z,3.20
2023-03-11T05:35:48.834Z,2.90
2023-03-11T05:36:48.796Z,2.70
2023-03-11T05:37:48.793Z,2.80
2023-03-11T05:38:48.779Z,2.90
2023-03-11T05:39:48.790Z,2.80
2023-03-11T05:40:48.763Z,2.60
2023-03-11T05:41:48.758Z,2.90
2023-03-11T05:42:48.755Z,5.70
2023-03-11T05:43:48.730Z,3.20
2023-03-11T05:44:48.742Z,3.30
2023-03-11T05:45:48.704Z,3.20
2023-03-11T05:46:48.769Z,3.20
2023-03-11T05:47:48.675Z,3.20
2023-03-11T05:48:48.678Z,3.20
2023-03-11T05:49:48.692Z,3.50
2023-03-11T05:50:48.654Z,3.10
2023-03-11T05:51:48.659Z,3.00
2023-03-11T05:52:48.657Z,3.20
2023-03-11T05:53:48.758Z,3.10
2023-03-11T05:54:48.626Z,3.50
2023-03-11T05:55:48.668Z,3.00
2023-03-11T05:56:48.577Z,3.40
2023-03-11T05:57:48.586Z,3.30
2023-03-11T05:58:48.596Z,2.90
2023-03-11T05:59:48.542Z,3.30
2023-03-11T06:00:48.542Z,3.60
2023-03-11T06:01:48.540Z,3.20
2023-03-11T06:02:48.520Z,3.10
2023-03-11T06:03:48.605Z,2.80
2023-03-11T06:04:48.633Z,3.10
2023-03-11T06:05:48.518Z,3.40
2023-03-11T06:06:48.473Z,2.90
2023-03-11T06:07:48.449Z,2.70
2023-03-11T06:08:48.449Z,2.90
2023-03-11T06:09:48.423Z,2.80
2023-03-11T06:10:49.121Z,2.70
2023-03-11T06:11:48.409Z,2.90
2023-03-11T06:12:48.400Z,3.40
2023-03-11T06:13:48.392Z,3.10
2023-03-11T06:14:48.392Z,2.90
2023-03-11T06:15:48.396Z,2.80
2023-03-11T06:16:48.350Z,3.30
2023-03-11T06:17:48.344Z,3.20
2023-03-11T06:18:48.333Z,3.50
2023-03-11T06:19:48.341Z,3.20
2023-03-11T06:20:48.328Z,2.90
2023-03-11T06:21:48.317Z,3.00
2023-03-11T06:22:48.307Z,3.20
2023-03-11T06:23:48.291Z,3.10
2023-03-11T06:24:48.290Z,3.10
2023-03-11T06:25:48.256Z,2.90
2023-03-11T06:26:48.255Z,3.00
2023-03-11T06:27:48.226Z,3.40
2023-03-11T06:28:48.235Z,3.00
2023-03-11T06:29:48.771Z,2.80
2023-03-11T06:30:48.217Z,3.10
2023-03-11T06:31:48.252Z,3.00
2023-03-11T06:32:48.250Z,3.10
2023-03-11T06:33:48.204Z,2.90
2023-03-11T06:34:48.151Z,2.90
2023-03-11T06:35:48.248Z,2.50
2023-03-11T06:36:48.159Z,2.60
2023-03-11T06:37:48.142Z,3.30
2023-03-11T06:38:48.110Z,3.00
2023-03-11T06:39:48.098Z,2.80
2023-03-11T06:40:48.091Z,3.20
2023-03-11T06:41:48.101Z,2.80
2023-03-11T06:42:48.084Z,3.00
2023-03-11T06:43:48.079Z,2.80
2023-03-11T06:44:48.038Z,3.10
2023-03-11T06:45:48.104Z,2.80
2023-03-11T06:46:48.022Z,3.10
2023-03-11T06:47:48.035Z,3.00
2023-03-11T06:48:48.007Z,2.90
2023-03-11T06:49:48.015Z,2.70
2023-03-11T06:50:48.525Z,3.00
2023-03-11T06:51:47.966Z,2.80
2023-03-11T06:52:47.967Z,3.20
2023-03-11T06:53:47.994Z,3.10
2023-03-11T06:54:47.936Z,2.90
2023-03-11T06:55:47.915Z,2.70
2023-03-11T06:56:47.997Z,2.90
2023-03-11T06:57:47.899Z,2.80
2023-03-11T06:58:47.907Z,2.40
2023-03-11T06:59:47.877Z,2.40
2023-03-11T07:00:47.915Z,2.80
2023-03-11T07:01:47.851Z,2.30
2023-03-11T07:02:47.864Z,2.60
2023-03-11T07:03:47.885Z,2.70
2023-03-11T07:04:47.821Z,2.60
2023-03-11T07:05:47.820Z,3.10
2023-03-11T07:06:47.836Z,2.70
2023-03-11T07:07:47.783Z,3.10
2023-03-11T07:08:47.778Z,2.90
2023-03-11T07:09:47.784Z,3.50
2023-03-11T07:10:47.750Z,3.30
2023-03-11T07:11:47.865Z,2.80
2023-03-11T07:12:47.729Z,2.90
2023-03-11T07:13:47.743Z,3.20
2023-03-11T07:14:47.740Z,3.00
2023-03-11T07:15:47.693Z,3.00
2023-03-11T07:16:47.820Z,2.80
2023-03-11T07:17:47.676Z,2.40
2023-03-11T07:18:47.674Z,2.70
2023-03-11T07:19:47.668Z,3.00
2023-03-11T07:20:47.643Z,3.20
2023-03-11T07:21:47.654Z,3.00
2023-03-11T07:22:47.626Z,2.80
2023-03-11T07:23:47.625Z,2.90
2023-03-11T07:24:47.604Z,2.70
2023-03-11T07:25:47.623Z,3.20
2023-03-11T07:26:47.596Z,3.00
2023-03-11T07:27:47.578Z,2.80
2023-03-11T07:28:47.566Z,2.90
2023-03-11T07:29:47.577Z,2.70
2023-03-11T07:30:47.529Z,2.60
2023-03-11T07:31:47.600Z,2.70
2023-03-11T07:32:47.538Z,2.40
2023-03-11T07:33:47.567Z,2.60
2023-03-11T07:34:47.505Z,2.60
2023-03-11T07:35:47.525Z,2.40
2023-03-11T07:36:47.469Z,2.40
2023-03-11T07:37:47.464Z,2.60
2023-03-11T07:38:47.467Z,2.70
2023-03-11T07:39:47.439Z,2.60
2023-03-11T07:40:47.413Z,2.60
2023-03-11T07:41:47.446Z,2.20
2023-03-11T07:42:47.394Z,2.10
2023-03-11T07:43:47.385Z,2.20
2023-03-11T07:44:47.375Z,2.30
2023-03-11T07:45:47.397Z,2.50
2023-03-11T07:46:47.384Z,2.10
2023-03-11T07:47:47.364Z,2.40
2023-03-11T07:48:47.341Z,2.60
2023-03-11T07:49:47.318Z,2.10
2023-03-11T07:50:47.322Z,2.20
2023-03-11T07:51:47.314Z,2.40
2023-03-11T07:52:47.292Z,2.40
2023-03-11T07:53:47.311Z,2.60
2023-03-11T07:54:47.271Z,2.50
2023-03-11T07:55:47.241Z,2.20
2023-03-11T07:56:47.247Z,2.60
2023-03-11T07:57:47.243Z,2.70
2023-03-11T07:58:47.262Z,2.70
2023-03-11T07:59:47.209Z,2.80
2023-03-11T08:00:47.205Z,2.40
2023-03-11T08:01:47.407Z,2.30
2023-03-11T08:02:47.261Z,2.20
2023-03-11T08:03:47.296Z,2.30
2023-03-11T08:04:47.144Z,2.50
2023-03-11T08:05:47.304Z,2.30
2023-03-11T08:06:47.129Z,2.60
2023-03-11T08:07:47.120Z,2.00
2023-03-11T08:08:47.122Z,2.40
2023-03-11T08:09:47.134Z,2.50
2023-03-11T08:10:47.111Z,2.40
2023-03-11T08:11:49.481Z,2.00
2023-03-11T08:12:47.058Z,2.20
2023-03-11T08:13:47.229Z,2.20
2023-03-11T08:14:47.067Z,2.30
2023-03-11T08:15:47.089Z,2.40
2023-03-11T08:16:47.021Z,2.10
2023-03-11T08:17:46.994Z,2.10
2023-03-11T08:18:47.016Z,2.40
2023-03-11T08:19:46.982Z,2.20
2023-03-11T08:20:47.032Z,2.10
2023-03-11T08:21:46.977Z,2.30
2023-03-11T08:22:57.630Z,2.30
2023-03-11T08:23:47.959Z,2.10
2023-03-11T08:24:46.927Z,2.10
2023-03-11T08:25:46.943Z,2.30
2023-03-11T08:26:46.911Z,2.10
2023-03-11T08:27:46.923Z,2.20
2023-03-11T08:28:46.892Z,2.00
2023-03-11T08:29:46.886Z,2.10
2023-03-11T08:30:46.915Z,2.30
2023-03-11T08:31:46.842Z,2.10
2023-03-11T08:32:46.947Z,2.10
2023-03-11T08:33:46.825Z,2.40
2023-03-11T08:34:46.811Z,2.40
2023-03-11T08:35:46.837Z,2.20
2023-03-11T08:36:46.818Z,2.10
2023-03-11T08:37:46.786Z,1.90
2023-03-11T08:38:46.867Z,2.40
2023-03-11T08:39:46.765Z,2.30
2023-03-11T08:40:46.776Z,2.30
2023-03-11T08:41:46.742Z,2.10
2023-03-11T08:42:46.767Z,2.10
2023-03-11T08:43:46.706Z,2.10
2023-03-11T08:44:46.724Z,2.00
2023-03-11T08:45:46.742Z,2.30
2023-03-11T08:46:46.819Z,1.90
2023-03-11T08:47:46.692Z,1.90
2023-03-11T08:48:46.655Z,2.10
2023-03-11T08:49:46.647Z,2.10
2023-03-11T08:50:53.758Z,2.30
2023-03-11T08:51:47.626Z,2.10
2023-03-11T08:52:46.636Z,2.10
2023-03-11T08:53:46.610Z,2.20
2023-03-11T08:54:46.579Z,2.10
2023-03-11T08:55:46.575Z,2.10
2023-03-11T08:56:46.594Z,1.90
2023-03-11T08:57:46.551Z,2.00
2023-03-11T08:58:46.560Z,1.90
2023-03-11T08:59:46.541Z,1.90
2023-03-11T09:00:46.532Z,2.00
2023-03-11T09:01:46.527Z,2.30
2023-03-11T09:02:46.517Z,2.20
2023-03-11T09:03:46.507Z,1.70
2023-03-11T09:04:46.477Z,2.10
2023-03-11T09:05:46.486Z,2.00
2023-03-11T09:06:46.498Z,2.30
2023-03-11T09:07:46.450Z,1.70
2023-03-11T09:08:46.444Z,2.10
2023-03-11T09:09:46.418Z,2.10
2023-03-11T09:10:46.427Z,2.10
2023-03-11T09:11:46.431Z,2.10
2023-03-11T09:12:46.385Z,1.60
2023-03-11T09:13:46.407Z,2.30
2023-03-11T09:14:46.368Z,2.00
2023-03-11T09:15:46.352Z,2.00
2023-03-11T09:16:46.349Z,2.20
2023-03-11T09:17:46.371Z,1.90
2023-03-11T09:18:46.320Z,2.30
2023-03-11T09:19:46.524Z,2.20
2023-03-11T09:20:46.303Z,2.00
2023-03-11T09:21:46.312Z,2.00
2023-03-11T09:22:46.286Z,2.10
2023-03-11T09:23:46.282Z,2.30
2023-03-11T09:24:46.257Z,2.50
2023-03-11T09:25:46.245Z,2.20
2023-03-11T09:26:46.247Z,2.10
2023-03-11T09:27:46.232Z,2.00
2023-03-11T09:28:46.207Z,2.30
2023-03-11T09:29:46.197Z,2.10
2023-03-11T09:30:46.200Z,2.00
2023-03-11T09:31:46.251Z,2.20
2023-03-11T09:32:46.226Z,2.00
2023-03-11T09:33:46.205Z,2.10
2023-03-11T09:34:46.141Z,1.90
2023-03-11T09:35:46.231Z,2.00
2023-03-11T09:36:46.143Z,2.10
2023-03-11T09:37:46.120Z,2.10
2023-03-11T09:38:46.364Z,1.90
2023-03-11T09:39:46.078Z,2.10
2023-03-11T09:40:47.117Z,2.30
2023-03-11T09:41:57.463Z,2.10
2023-03-11T09:42:47.050Z,2.00
2023-03-11T09:43:46.055Z,2.10
2023-03-11T09:44:46.052Z,2.00
2023-03-11T09:45:46.019Z,2.10
2023-03-11T09:46:46.103Z,2.00
2023-03-11T09:47:46.004Z,2.00
2023-03-11T09:48:45.980Z,1.80
2023-03-11T09:49:46.013Z,2.00
2023-03-11T09:50:45.994Z,1.70
2023-03-11T09:51:45.951Z,1.70
2023-03-11T09:52:45.949Z,1.80
2023-03-11T09:53:45.981Z,1.60
2023-03-11T09:54:45.940Z,1.70
2023-03-11T09:55:45.939Z,1.70
2023-03-11T09:56:45.939Z,1.80
2023-03-11T09:57:45.885Z,2.00
2023-03-11T09:58:45.869Z,2.00
2023-03-11T09:59:45.857Z,1.90
2023-03-11T10:00:45.852Z,2.10
2023-03-11T10:01:45.872Z,2.10
2023-03-11T10:02:46.070Z,1.70
2023-03-11T10:03:45.821Z,1.90
2023-03-11T10:04:45.832Z,1.40
2023-03-11T10:05:45.855Z,1.30
2023-03-11T10:06:45.813Z,1.50
2023-03-11T10:07:45.768Z,1.50
2023-03-11T10:08:45.754Z,1.60
2023-03-11T10:09:45.750Z,1.60
2023-03-11T10:10:45.760Z,1.90
2023-03-11T10:11:45.718Z,1.60
2023-03-11T10:12:45.737Z,1.70
2023-03-11T10:13:45.701Z,2.00
2023-03-11T10:14:45.708Z,1.40
2023-03-11T10:15:45.680Z,1.50
2023-03-11T10:16:45.701Z,1.50
2023-03-11T10:17:45.659Z,1.50
2023-03-11T10:18:45.640Z,1.70
2023-03-11T10:19:45.645Z,1.40
2023-03-11T10:20:45.630Z,1.70
2023-03-11T10:21:45.653Z,1.60
2023-03-11T10:22:45.638Z,1.40
2023-03-11T10:23:45.599Z,1.20
2023-03-11T10:24:46.291Z,1.60
2023-03-11T10:25:45.567Z,1.50
2023-03-11T10:26:45.572Z,1.60
2023-03-11T10:27:45.591Z,1.70
2023-03-11T10:28:45.597Z,2.20
2023-03-11T10:29:45.542Z,1.40
2023-03-11T10:30:45.507Z,1.40
2023-03-11T10:31:45.526Z,1.30
2023-03-11T10:32:45.508Z,1.50
2023-03-11T10:33:47.739Z,1.30
2023-03-11T10:34:45.467Z,1.40
2023-03-11T10:35:45.470Z,1.40
2023-03-11T10:36:45.463Z,1.50
2023-03-11T10:37:49.745Z,1.30
2023-03-11T10:38:45.411Z,1.60
2023-03-11T10:39:45.442Z,1.50
2023-03-11T10:40:45.418Z,1.50
2023-03-11T10:41:45.409Z,1.50
2023-03-11T10:42:45.379Z,1.60
2023-03-11T10:43:45.364Z,1.20
2023-03-11T10:44:45.367Z,1.30
2023-03-11T10:45:45.402Z,1.10
2023-03-11T10:46:45.488Z,1.30
2023-03-11T10:47:45.358Z,1.20
2023-03-11T10:48:45.304Z,1.10
2023-03-11T10:49:45.324Z,1.30
2023-03-11T10:50:45.286Z,1.20
2023-03-11T10:51:45.287Z,0.90
2023-03-11T10:52:45.279Z,1.30
2023-03-11T10:53:45.265Z,1.00
2023-03-11T10:54:45.236Z,1.60
2023-03-11T10:55:45.257Z,1.70
2023-03-11T10:56:45.212Z,1.30
2023-03-11T10:57:45.225Z,1.30
2023-03-11T10:58:45.192Z,1.10
2023-03-11T10:59:45.182Z,1.00
2023-03-11T11:00:45.179Z,1.20
2023-03-11T11:01:45.189Z,0.90
2023-03-11T11:02:45.151Z,0.90
2023-03-11T11:03:45.154Z,1.70
2023-03-11T11:04:45.132Z,0.90
2023-03-11T11:05:45.115Z,1.10
2023-03-11T11:06:45.125Z,1.10
2023-03-11T11:07:45.125Z,1.40
2023-03-11T11:08:45.087Z,1.10
2023-03-11T11:09:45.112Z,1.20
2023-03-11T11:10:45.059Z,1.10
2023-03-11T11:11:45.065Z,1.20
2023-03-11T11:12:45.064Z,1.00
2023-03-11T11:13:45.033Z,1.30
2023-03-11T11:14:45.026Z,1.50
2023-03-11T11:15:45.001Z,1.00
2023-03-11T11:16:45.044Z,0.90
2023-03-11T11:17:45.019Z,1.20
2023-03-11T11:18:44.972Z,1.00
2023-03-11T11:19:44.968Z,1.10
2023-03-11T11:20:44.977Z,0.90
2023-03-11T11:21:44.939Z,1.20
2023-03-11T11:22:44.934Z,1.10
2023-03-11T11:23:45.002Z,1.20
2023-03-11T11:24:44.908Z,1.10
2023-03-11T11:25:44.932Z,1.00
2023-03-11T11:26:45.007Z,1.30
2023-03-11T11:27:44.867Z,1.00
2023-03-11T11:28:44.921Z,1.30
2023-03-11T11:29:44.859Z,0.90
2023-03-11T11:30:44.927Z,1.00
2023-03-11T11:31:44.835Z,1.10
2023-03-11T11:32:45.012Z,0.90
2023-03-11T11:33:44.808Z,1.20
2023-03-11T11:34:44.809Z,0.90
2023-03-11T11:35:44.838Z,0.90
2023-03-11T11:36:44.784Z,1.00
2023-03-11T11:37:44.755Z,0.90
2023-03-11T11:38:44.763Z,0.90
2023-03-11T11:39:44.731Z,1.10
2023-03-11T11:40:44.737Z,1.20
2023-03-11T11:41:44.748Z,1.10
2023-03-11T11:42:44.711Z,1.00
2023-03-11T11:43:44.700Z,0.80
2023-03-11T11:44:44.701Z,1.10
2023-03-11T11:45:44.701Z,1.00
2023-03-11T11:46:44.654Z,1.10
2023-03-11T11:47:44.635Z,0.90
2023-03-11T11:48:44.641Z,1.00
2023-03-11T11:49:44.664Z,1.10
2023-03-11T11:50:44.605Z,1.10
2023-03-11T11:51:44.614Z,1.10
2023-03-11T11:52:45.226Z,1.20
2023-03-11T11:53:44.579Z,1.20
2023-03-11T11:54:44.566Z,0.90
2023-03-11T11:55:44.575Z,1.00
2023-03-11T11:56:44.557Z,0.90
2023-03-11T11:57:44.565Z,1.10
2023-03-11T11:58:44.560Z,1.00
2023-03-11T11:59:44.567Z,0.90
2023-03-11T12:00:44.551Z,1.20
2023-03-11T12:01:44.489Z,1.20
2023-03-11T12:02:44.528Z,1.10
2023-03-11T12:03:44.523Z,0.90
2023-03-11T12:04:44.444Z,0.80
2023-03-11T12:05:44.513Z,0.90
2023-03-11T12:06:44.426Z,1.10
2023-03-11T12:07:44.414Z,1.10
2023-03-11T12:08:44.423Z,1.00
2023-03-11T12:09:44.398Z,1.20
2023-03-11T12:10:44.396Z,0.80
2023-03-11T12:11:44.418Z,1.20
2023-03-11T12:12:44.372Z,1.20
2023-03-11T12:13:44.360Z,0.90
2023-03-11T12:14:44.335Z,1.10
2023-03-11T12:15:44.429Z,1.10
2023-03-11T12:16:44.333Z,1.00
2023-03-11T12:17:44.302Z,1.00
2023-03-11T12:18:44.287Z,0.70
2023-03-11T12:19:44.297Z,1.00
2023-03-11T12:20:44.285Z,1.30
2023-03-11T12:21:44.254Z,1.20
2023-03-11T12:22:44.263Z,0.80
2023-03-11T12:23:44.289Z,1.10
2023-03-11T12:24:44.216Z,0.70
2023-03-11T12:25:44.249Z,1.00
2023-03-11T12:26:44.198Z,1.10
2023-03-11T12:27:44.208Z,1.20
2023-03-11T12:28:44.182Z,1.10
2023-03-11T12:29:44.189Z,0.80
2023-03-11T12:30:44.160Z,1.00
2023-03-11T12:31:44.207Z,1.10
2023-03-11T12:32:44.230Z,1.00
2023-03-11T12:33:44.163Z,0.80
2023-03-11T12:34:44.113Z,1.00
2023-03-11T12:35:44.158Z,0.80
2023-03-11T12:36:44.102Z,1.00
2023-03-11T12:37:44.080Z,0.90
2023-03-11T12:38:44.078Z,1.00
2023-03-11T12:39:44.072Z,1.00
2023-03-11T12:40:44.067Z,0.90
2023-03-11T12:41:44.037Z,1.10
2023-03-11T12:42:44.015Z,1.00
2023-03-11T12:43:44.011Z,1.10
2023-03-11T12:44:44.019Z,1.20
2023-03-11T12:45:44.009Z,1.10
2023-03-11T12:46:44.068Z,1.00
2023-03-11T12:47:43.977Z,0.90
2023-03-11T12:48:43.989Z,1.00
2023-03-11T12:49:43.949Z,1.00
2023-03-11T12:50:43.931Z,0.90
2023-03-11T12:51:43.917Z,0.90
2023-03-11T12:52:43.900Z,1.10
2023-03-11T12:53:43.918Z,0.90
2023-03-11T12:54:43.913Z,1.10
2023-03-11T12:55:43.885Z,0.90
2023-03-11T12:56:43.874Z,1.10
2023-03-11T12:57:43.851Z,1.00
2023-03-11T12:58:43.865Z,0.80
2023-03-11T12:59:43.823Z,0.70
2023-03-11T13:00:43.834Z,0.90
2023-03-11T13:01:43.868Z,0.80
2023-03-11T13:02:43.826Z,0.90
2023-03-11T13:03:45.632Z,0.70
2023-03-11T13:04:43.796Z,0.80
2023-03-11T13:05:43.794Z,0.80
2023-03-11T13:06:51.819Z,0.90
2023-03-11T13:07:43.742Z,1.00
2023-03-11T13:08:43.732Z,0.70
2023-03-11T13:09:43.721Z,1.10
2023-03-11T13:10:43.741Z,1.00
2023-03-11T13:11:43.702Z,0.90
2023-03-11T13:12:43.697Z,0.90
2023-03-11T13:13:43.684Z,1.30
2023-03-11T13:14:43.685Z,0.90
2023-03-11T13:15:43.656Z,1.10
2023-03-11T13:16:43.650Z,1.00
2023-03-11T13:17:43.657Z,0.90
2023-03-11T13:18:43.643Z,0.80